Time;durP1;ratioP1;P1;durP2;ratioP2;P2;SDS_P1;SDS_P2;PMS_P1;PMS_P2;Temp;Humidity;BMP_temperature;BMP_pressure;BME280_temperature;BME280_humidity;BME280_pressure;Samples;Min_cycle;Max_cycle;Signal;HPM_P1;HPM_P2
2021/08/28 00:02:12;;;;;;;3.10;1.10;;;;;;;20.80;55.40;101911.38;5032922;28;20156;-60
2021/08/28 00:04:37;;;;;;;5.85;1.60;;;;;;;20.79;55.26;101899.94;5032293;28;20039;-60
2021/08/28 00:07:03;;;;;;;4.25;1.30;;;;;;;20.80;55.45;101903.41;5032844;28;20133;-61
2021/08/28 00:09:28;;;;;;;5.35;1.20;;;;;;;20.79;55.39;101901.72;5033045;28;20049;-61
2021/08/28 00:11:53;;;;;;;4.07;1.10;;;;;;;20.78;55.55;101903.53;5031951;28;20489;-62
2021/08/28 00:14:19;;;;;;;3.63;1.20;;;;;;;20.77;55.24;101898.34;5032683;28;20053;-61
2021/08/28 00:16:44;;;;;;;3.22;1.23;;;;;;;20.78;55.33;101900.06;5032484;28;20017;-61
2021/08/28 00:19:09;;;;;;;2.88;1.00;;;;;;;20.77;55.48;101893.06;5032036;28;20033;-61
2021/08/28 00:21:35;;;;;;;5.00;1.60;;;;;;;20.76;55.68;101888.72;5032982;28;20025;-61
2021/08/28 00:24:01;;;;;;;4.68;1.40;;;;;;;20.77;55.37;101893.06;5032291;28;20030;-61
2021/08/28 00:26:28;;;;;;;4.03;1.20;;;;;;;20.77;55.46;101898.34;5031980;28;20048;-60
2021/08/28 00:28:53;;;;;;;4.60;1.40;;;;;;;20.76;55.46;101892.22;5032193;28;20454;-61
2021/08/28 00:31:18;;;;;;;4.47;1.27;;;;;;;20.75;55.46;101892.34;5032402;28;20036;-60
2021/08/28 00:33:53;;;;;;;4.32;1.30;;;;;;;20.74;55.30;101891.47;5031800;28;20785;-61
2021/08/28 00:36:18;;;;;;;4.43;2.35;;;;;;;20.74;55.51;101893.28;5032583;28;20028;-60
2021/08/28 00:38:43;;;;;;;4.97;1.37;;;;;;;20.76;55.18;101891.34;5032235;28;20026;-60
2021/08/28 00:41:08;;;;;;;3.53;1.30;;;;;;;20.75;55.17;101893.16;5031754;28;20293;-60
2021/08/28 00:43:34;;;;;;;3.90;1.20;;;;;;;20.74;55.33;101888.00;5032236;28;20370;-61
2021/08/28 00:45:59;;;;;;;3.50;1.35;;;;;;;20.75;55.13;101892.34;5032297;28;20031;-61
2021/08/28 00:48:25;;;;;;;4.22;1.40;;;;;;;20.75;55.45;101895.00;5031823;28;20152;-61
2021/08/28 00:50:50;;;;;;;5.75;1.40;;;;;;;20.72;55.58;101889.91;5031872;28;20123;-62
2021/08/28 00:53:16;;;;;;;4.00;1.42;;;;;;;20.71;55.44;101901.47;5031327;28;20067;-61
2021/08/28 00:55:46;;;;;;;4.18;1.30;;;;;;;20.72;55.40;101900.50;5032357;28;20080;-61
2021/08/28 00:58:12;;;;;;;5.50;1.60;;;;;;;20.72;55.58;101904.00;5032108;28;20029;-61
2021/08/28 01:00:46;;;;;;;3.42;1.30;;;;;;;20.72;55.60;101896.06;5031679;28;20117;-61
2021/08/28 01:03:12;;;;;;;;;;;;;;;20.73;55.63;101899.53;5032550;28;20042;-60
2021/08/28 01:06:38;;;;;;;3.97;1.42;;;;;;;20.72;55.20;101892.56;5032201;28;19924;-60
2021/08/28 01:09:10;;;;;;;3.83;1.40;;;;;;;20.72;55.40;101897.88;4969966;28;20031;-61
2021/08/28 01:11:40;;;;;;;4.32;1.42;;;;;;;20.70;55.70;101889.19;5021722;28;20059;-61
2021/08/28 01:14:13;;;;;;;4.30;1.30;;;;;;;20.70;55.60;101891.84;5031823;28;20029;-61
2021/08/28 01:16:41;;;;;;;4.05;1.23;;;;;;;20.70;55.54;101890.03;5031908;28;20056;-61
2021/08/28 01:19:16;;;;;;;3.15;1.20;;;;;;;20.68;55.53;101891.09;5031641;28;20394;-61
2021/08/28 01:21:43;;;;;;;6.03;1.40;;;;;;;20.69;55.46;101893.63;5031183;28;20033;-61
2021/08/28 01:24:08;;;;;;;4.10;1.38;;;;;;;20.69;55.52;101901.56;5032018;28;20033;-61
2021/08/28 01:26:40;;;;;;;5.30;1.48;;;;;;;20.69;55.50;101893.63;5033887;28;20033;-61
2021/08/28 01:29:18;;;;;;;4.40;1.30;;;;;;;20.70;55.65;101891.84;5034890;28;20504;-61
2021/08/28 01:31:48;;;;;;;4.32;1.55;;;;;;;20.68;55.75;101885.81;5035752;28;20045;-61
2021/08/28 01:34:16;;;;;;;3.22;1.10;;;;;;;20.69;55.80;101879.56;5034513;28;20029;-61
2021/08/28 01:36:42;;;;;;;4.28;1.33;;;;;;;20.68;55.78;101877.84;5035083;28;20030;-61
2021/08/28 01:39:10;;;;;;;3.92;1.35;;;;;;;20.68;55.68;101884.03;5035640;28;20026;-61
2021/08/28 01:41:37;;;;;;;4.85;1.40;;;;;;;20.67;55.49;101879.66;5035676;28;20022;-61
2021/08/28 01:44:03;;;;;;;3.63;1.35;;;;;;;20.67;55.75;101878.84;5034586;28;20450;-61
2021/08/28 01:46:28;;;;;;;4.50;1.52;;;;;;;20.67;55.88;101881.50;5035863;28;20155;-61
2021/08/28 01:48:53;;;;;;;3.92;1.40;;;;;;;20.67;55.55;101887.63;5035327;28;20465;-61
2021/08/28 01:51:20;;;;;;;3.95;1.20;;;;;;;20.67;55.59;101884.97;5034733;28;20071;-62
2021/08/28 01:53:45;;;;;;;5.13;1.92;;;;;;;20.63;55.57;101884.34;5035338;28;20021;-60
2021/08/28 01:56:14;;;;;;;5.10;1.67;;;;;;;20.67;55.41;101895.56;5035477;28;20025;-60
2021/08/28 01:58:40;;;;;;;3.78;1.30;;;;;;;20.66;55.73;101891.22;5034680;28;20036;-61
2021/08/28 02:01:06;;;;;;;3.78;1.30;;;;;;;20.61;55.76;101878.28;5035328;28;20030;-61
2021/08/28 02:03:31;;;;;;;4.20;1.30;;;;;;;20.65;55.86;101897.50;5034708;28;20025;-61
2021/08/28 02:06:04;;;;;;;3.47;1.30;;;;;;;20.65;55.85;101900.97;5035388;28;20025;-60
2021/08/28 02:08:55;;;;;;;6.18;1.70;;;;;;;20.67;55.91;101897.38;5035361;28;20029;-60
2021/08/28 02:11:27;;;;;;;3.28;1.10;;;;;;;20.65;55.61;101898.31;5034837;28;20037;-61
2021/08/28 02:14:01;;;;;;;3.85;1.55;;;;;;;20.65;55.96;101900.13;5035233;28;20104;-60
2021/08/28 02:16:31;;;;;;;4.18;1.05;;;;;;;20.63;56.09;101889.63;5035254;28;20647;-60
2021/08/28 02:19:29;;;;;;;3.63;1.30;;;;;;;20.64;55.78;101887.84;5034215;28;20036;-60
2021/08/28 02:21:58;;;;;;;4.53;1.65;;;;;;;20.62;56.02;101887.94;5023526;28;20195;-60
2021/08/28 02:24:28;;;;;;;5.13;1.50;;;;;;;20.64;56.06;101893.16;5034990;28;20060;-60
2021/08/28 02:27:23;;;;;;;4.03;1.27;;;;;;;20.64;56.02;101885.19;5034192;28;20080;-61
2021/08/28 02:29:52;;;;;;;4.57;1.60;;;;;;;20.63;55.98;101878.16;5034895;28;20029;-60
2021/08/28 02:32:22;;;;;;;4.03;1.42;;;;;;;20.62;56.00;101879.97;5034254;28;20026;-60
2021/08/28 02:34:50;;;;;;;3.70;1.25;;;;;;;20.63;56.12;101878.16;5034954;28;20038;-61
2021/08/28 02:37:16;;;;;;;4.82;1.33;;;;;;;20.61;55.65;101869.50;5033986;28;20018;-61
2021/08/28 02:39:44;;;;;;;4.10;1.40;;;;;;;20.60;56.22;101881.91;5033837;28;20068;-61
2021/08/28 02:42:11;;;;;;;3.97;1.63;;;;;;;20.61;55.96;101880.94;5034922;28;20052;-61
2021/08/28 02:44:39;;;;;;;3.35;1.38;;;;;;;20.57;55.99;101879.50;5034645;28;20474;-61
2021/08/28 02:47:05;;;;;;;4.20;1.30;;;;;;;20.62;56.13;101882.63;5033821;28;20044;-62
2021/08/28 02:49:32;;;;;;;4.47;1.42;;;;;;;20.62;56.09;101876.50;5034561;28;20485;-61
2021/08/28 02:51:59;;;;;;;3.58;1.38;;;;;;;20.62;56.15;101879.97;5034192;28;20509;-61
2021/08/28 02:54:27;;;;;;;4.35;1.33;;;;;;;20.61;55.96;101880.09;5033843;28;20071;-60
2021/08/28 02:56:54;;;;;;;4.88;1.65;;;;;;;20.62;56.15;101881.81;5034153;28;20032;-60
2021/08/28 02:59:24;;;;;;;4.88;1.55;;;;;;;20.61;56.11;101878.28;5034428;28;20060;-61
2021/08/28 03:01:49;;;;;;;3.97;1.25;;;;;;;20.61;55.88;101869.50;5033637;28;20037;-61
2021/08/28 03:04:17;;;;;;;4.78;1.60;;;;;;;20.59;56.24;101869.63;5034510;28;20026;-61
2021/08/28 03:06:44;;;;;;;3.95;1.48;;;;;;;20.60;56.29;101867.81;5034522;28;20033;-60
2021/08/28 03:09:10;;;;;;;4.32;1.50;;;;;;;20.58;56.10;101859.16;5033777;28;20100;-61
2021/08/28 03:11:35;;;;;;;4.90;1.52;;;;;;;20.56;56.12;101859.25;5034056;28;20499;-61
2021/08/28 03:14:00;;;;;;;4.55;1.50;;;;;;;20.59;56.26;101856.38;5033341;28;20204;-61
2021/08/28 03:16:29;;;;;;;3.20;1.30;;;;;;;20.59;56.12;101861.69;5034219;28;20412;-61
2021/08/28 03:18:56;;;;;;;4.05;1.40;;;;;;;20.58;56.40;101865.28;5033884;28;20029;-61
2021/08/28 03:21:23;;;;;;;5.82;1.60;;;;;;;20.59;56.39;101856.38;5033252;28;20087;-61
2021/08/28 03:23:50;;;;;;;4.88;1.52;;;;;;;20.59;56.24;101864.31;5033450;28;20064;-61
2021/08/28 03:26:31;;;;;;;4.25;1.50;;;;;;;20.58;56.30;101862.63;5033916;28;20053;-61
2021/08/28 03:29:07;;;;;;;4.85;1.58;;;;;;;20.59;56.38;101866.97;5032812;28;20025;-61
2021/08/28 03:31:32;;;;;;;4.07;1.42;;;;;;;20.60;56.30;101873.09;5033931;28;20025;-61
2021/08/28 03:33:59;;;;;;;5.32;1.60;;;;;;;20.58;56.25;101867.09;5033491;28;20095;-60
2021/08/28 03:36:26;;;;;;;4.57;1.50;;;;;;;20.58;56.25;101856.50;5032989;28;20108;-60
2021/08/28 03:38:51;;;;;;;4.13;1.50;;;;;;;20.58;56.51;101857.34;5033491;28;20022;-60
2021/08/28 03:41:17;;;;;;;4.55;1.70;;;;;;;20.58;56.49;101859.16;5033802;28;20437;-61
2021/08/28 03:43:45;;;;;;;3.80;1.35;;;;;;;20.58;56.40;101857.34;5032829;28;20067;-60
2021/08/28 03:46:11;;;;;;;4.53;1.48;;;;;;;20.58;56.56;101864.44;5033603;28;20436;-61
2021/08/28 03:48:40;;;;;;;5.63;1.70;;;;;;;20.57;56.52;101862.75;5033113;28;20022;-61
2021/08/28 03:51:06;;;;;;;3.75;1.27;;;;;;;20.57;56.48;101866.25;5032852;28;20022;-62
2021/08/28 03:53:32;;;;;;;4.00;1.60;;;;;;;20.57;56.66;101871.56;5033336;28;20057;-60
2021/08/28 03:55:57;;;;;;;3.88;1.65;;;;;;;20.55;56.35;101865.50;5032956;28;20041;-61
2021/08/28 03:58:23;;;;;;;4.38;1.45;;;;;;;20.58;56.68;101861.78;5032625;28;20033;-61
2021/08/28 04:00:57;;;;;;;4.55;1.50;;;;;;;20.57;56.50;101868.91;5032858;28;20381;-61
2021/08/28 04:03:23;;;;;;;5.28;1.60;;;;;;;20.56;56.60;101864.56;5032367;28;21003;-61
2021/08/28 04:05:48;;;;;;;3.20;1.40;;;;;;;20.57;56.71;101862.75;5032798;28;20108;-61
2021/08/28 04:08:16;;;;;;;3.37;1.30;;;;;;;20.54;56.66;101860.34;5033255;28;20742;-61
2021/08/28 04:10:41;;;;;;;3.92;1.70;;;;;;;20.56;56.61;101859.25;5032538;28;20290;-60
2021/08/28 04:13:06;;;;;;;4.43;1.42;;;;;;;20.56;56.34;101863.72;5032863;28;20033;-60
2021/08/28 04:15:31;;;;;;;5.88;2.47;;;;;;;20.56;56.73;101863.72;5032996;28;20497;-60
2021/08/28 04:17:57;;;;;;;4.10;1.60;;;;;;;20.55;56.82;101857.56;5031962;28;20037;-60
2021/08/28 04:20:22;;;;;;;4.65;1.60;;;;;;;20.56;56.77;101861.06;5032772;28;20531;-61
2021/08/28 04:22:56;;;;;;;4.78;1.58;;;;;;;20.56;56.60;101861.06;5032737;28;20033;-60
2021/08/28 04:25:24;;;;;;;4.90;2.13;;;;;;;20.56;56.62;101858.44;5032303;28;20025;-61
2021/08/28 04:27:50;;;;;;;4.32;1.50;;;;;;;20.51;56.71;101850.81;5032486;28;20031;-61
2021/08/28 04:30:15;;;;;;;5.07;1.45;;;;;;;20.55;56.77;101860.22;5032638;28;20029;-61
2021/08/28 04:32:40;;;;;;;4.47;1.52;;;;;;;20.54;56.70;101858.53;5031856;28;20029;-61
2021/08/28 04:35:06;;;;;;;4.05;1.38;;;;;;;20.55;56.81;101862.84;5032452;28;20040;-62
2021/08/28 04:37:31;;;;;;;4.13;1.50;;;;;;;20.55;56.81;101862.03;5032834;28;20033;-61
2021/08/28 04:39:56;;;;;;;3.75;1.55;;;;;;;20.55;56.67;101869.97;5031635;28;20025;-61
2021/08/28 04:42:22;;;;;;;5.25;1.77;;;;;;;20.55;57.04;101867.31;5032507;28;20026;-61
2021/08/28 04:44:47;;;;;;;3.95;1.40;;;;;;;20.50;57.04;101862.38;5032113;28;20458;-61
2021/08/28 04:47:12;;;;;;;4.37;1.50;;;;;;;20.53;57.00;101870.09;5031444;28;20032;-60
2021/08/28 04:49:37;;;;;;;4.87;1.80;;;;;;;20.54;57.02;101871.78;5031989;28;20337;-60
2021/08/28 04:52:04;;;;;;;4.97;1.80;;;;;;;20.54;56.87;101868.31;5031382;28;20651;-61
2021/08/28 04:54:31;;;;;;;5.10;1.90;;;;;;;20.52;56.93;101859.59;5030990;28;20738;-60
2021/08/28 04:56:56;;;;;;;4.82;1.50;;;;;;;20.51;57.01;101855.28;5031490;28;20017;-61
2021/08/28 04:59:22;;;;;;;5.85;1.55;;;;;;;20.53;56.77;101867.44;5031215;28;20112;-62
2021/08/28 05:01:50;;;;;;;4.22;1.63;;;;;;;20.53;57.13;101863.94;5031057;28;20100;-61
2021/08/28 05:04:15;;;;;;;4.97;1.50;;;;;;;20.51;57.14;101864.06;5031451;28;20033;-61
2021/08/28 05:06:40;;;;;;;4.57;1.85;;;;;;;20.50;57.11;101866.81;5031348;28;20053;-61
2021/08/28 05:09:08;;;;;;;4.63;1.38;;;;;;;20.50;57.15;101865.00;5031471;28;20117;-61
2021/08/28 05:11:33;;;;;;;3.70;1.50;;;;;;;20.52;57.02;101865.75;5032063;28;20041;-60
2021/08/28 05:13:59;;;;;;;2.83;1.35;;;;;;;20.51;57.03;101861.41;5030768;28;20389;-61
2021/08/28 05:16:24;;;;;;;4.05;1.48;;;;;;;20.51;56.89;101864.06;5031689;28;20068;-61
2021/08/28 05:18:49;;;;;;;5.80;1.83;;;;;;;20.51;56.90;101857.94;5031628;28;20381;-61
2021/08/28 05:21:16;;;;;;;5.20;1.77;;;;;;;20.52;56.98;101867.53;5031192;28;20338;-62
2021/08/28 05:23:42;;;;;;;4.28;1.42;;;;;;;20.51;57.14;101869.38;5031713;28;20041;-61
2021/08/28 05:26:07;;;;;;;4.07;1.33;;;;;;;20.51;57.00;101868.53;5031599;28;20487;-61
2021/08/28 05:28:32;;;;;;;5.03;1.50;;;;;;;20.51;57.23;101869.38;5031068;28;20274;-62
2021/08/28 05:30:58;;;;;;;3.80;1.60;;;;;;;20.51;57.06;101874.66;5031244;28;20104;-60
2021/08/28 05:33:23;;;;;;;4.40;1.60;;;;;;;20.51;57.08;101877.31;5031815;28;20080;-60
2021/08/28 05:35:48;;;;;;;3.80;1.40;;;;;;;20.52;57.34;101879.00;5030888;28;20470;-60
2021/08/28 05:38:17;;;;;;;4.72;1.45;;;;;;;20.52;57.26;101870.19;5031892;28;20484;-61
2021/08/28 05:40:43;;;;;;;3.20;1.40;;;;;;;20.51;57.38;101879.97;5031641;28;20140;-60
2021/08/28 05:43:08;;;;;;;3.15;1.40;;;;;;;20.51;57.31;101873.81;5030904;28;20053;-60
2021/08/28 05:45:34;;;;;;;3.95;1.65;;;;;;;20.51;57.41;101879.13;5031434;28;20099;-60
2021/08/28 05:48:05;;;;;;;5.10;1.70;;;;;;;20.51;57.39;101887.91;5031211;28;20025;-61
2021/08/28 05:50:30;;;;;;;4.88;1.70;;;;;;;20.52;57.33;101886.09;5030916;28;20465;-62
2021/08/28 05:52:56;;;;;;;4.78;1.70;;;;;;;20.51;57.04;101892.34;5031220;28;20087;-62
2021/08/28 05:55:21;;;;;;;4.22;1.58;;;;;;;20.50;57.32;101885.38;5031679;28;20480;-62
2021/08/28 05:57:49;;;;;;;5.22;1.55;;;;;;;20.45;57.22;101875.13;5030571;28;20037;-62
2021/08/28 06:00:15;;;;;;;3.40;1.50;;;;;;;20.51;57.30;101893.19;5031688;28;20053;-61
2021/08/28 06:02:46;;;;;;;4.18;1.35;;;;;;;20.51;57.34;101895.00;5030463;28;20129;-61
2021/08/28 06:05:12;;;;;;;3.55;1.45;;;;;;;20.48;57.48;101896.91;5031044;28;20029;-63
2021/08/28 06:07:40;;;;;;;4.40;1.70;;;;;;;20.51;57.63;101893.19;5031422;28;20076;-61
2021/08/28 06:10:07;;;;;;;3.67;1.38;;;;;;;20.51;57.31;101892.34;5030356;28;20021;-62
2021/08/28 06:12:33;;;;;;;3.80;1.38;;;;;;;20.51;57.51;101895.84;5033271;28;20055;-61
2021/08/28 06:14:59;;;;;;;4.63;1.40;;;;;;;20.50;57.47;101890.66;5035175;28;20022;-61
2021/08/28 06:17:24;;;;;;;4.40;1.52;;;;;;;20.51;57.43;101902.94;5034914;28;20446;-61
2021/08/28 06:19:49;;;;;;;4.38;1.60;;;;;;;20.48;57.37;101896.91;5035276;28;20104;-60
2021/08/28 06:22:15;;;;;;;3.85;1.60;;;;;;;20.51;57.55;101898.50;5035422;28;20080;-60
2021/08/28 06:24:41;;;;;;;4.93;1.40;;;;;;;20.50;57.50;101899.44;5035838;28;20033;-60
2021/08/28 06:27:09;;;;;;;4.45;1.55;;;;;;;20.50;57.40;101893.31;5035308;28;20101;-61
2021/08/28 06:29:35;;;;;;;3.95;1.38;;;;;;;20.49;57.61;101897.78;5035862;28;20493;-61
2021/08/28 06:32:01;;;;;;;3.80;1.50;;;;;;;20.48;57.69;101898.72;5034818;28;20083;-62
2021/08/28 06:34:26;;;;;;;4.93;1.48;;;;;;;20.49;57.54;101897.78;5035597;28;20393;-62
2021/08/28 06:36:55;;;;;;;4.00;1.60;;;;;;;20.51;57.47;101901.13;5034700;28;20026;-62
2021/08/28 06:39:20;;;;;;;4.72;1.70;;;;;;;20.52;57.67;101905.50;5034313;28;20511;-63
2021/08/28 06:41:45;;;;;;;5.40;1.80;;;;;;;20.52;58.07;101897.53;5034782;28;20105;-62
2021/08/28 06:44:11;;;;;;;5.78;1.88;;;;;;;20.49;57.82;101897.78;5034623;28;20651;-62
2021/08/28 06:46:39;;;;;;;4.67;1.57;;;;;;;20.57;58.05;101903.31;5034174;28;20021;-63
2021/08/28 06:49:04;;;;;;;5.10;1.50;;;;;;;20.60;58.07;101905.75;5034800;28;20294;-63
2021/08/28 06:51:30;;;;;;;5.88;1.50;;;;;;;20.61;57.93;101901.28;5035009;28;20049;-61
2021/08/28 06:53:56;;;;;;;5.82;1.90;;;;;;;20.60;57.95;101895.16;5033994;28;20493;-63
2021/08/28 06:56:21;;;;;;;6.28;2.10;;;;;;;20.62;57.90;101890.56;5034792;28;20038;-63
2021/08/28 06:58:46;;;;;;;3.42;1.42;;;;;;;20.67;58.12;101903.50;5034432;28;20154;-63
2021/08/28 07:01:11;;;;;;;5.17;1.63;;;;;;;20.70;57.89;101899.78;5034074;28;20380;-62
2021/08/28 07:03:38;;;;;;;5.32;1.58;;;;;;;20.71;57.87;101899.69;5034481;28;20282;-62
2021/08/28 07:06:03;;;;;;;4.47;1.65;;;;;;;20.75;58.22;101897.63;5033259;28;20835;-60
2021/08/28 07:08:28;;;;;;;4.68;1.70;;;;;;;20.74;58.27;101895.94;5034184;28;20025;-61
2021/08/28 07:10:54;;;;;;;4.05;1.40;;;;;;;20.78;58.48;101900.06;5034059;28;20099;-62
2021/08/28 07:13:21;;;;;;;5.10;1.70;;;;;;;20.79;58.30;101899.06;5033338;28;20057;-59
2021/08/28 07:15:46;;;;;;;3.58;1.30;;;;;;;20.78;58.41;101898.25;5033797;28;20104;-61
2021/08/28 07:18:12;;;;;;;6.75;1.85;;;;;;;20.79;58.67;101904.38;5034226;28;20120;-62
2021/08/28 07:20:38;;;;;;;3.88;1.52;;;;;;;20.79;58.65;101907.88;5033340;28;20037;-61
2021/08/28 07:23:05;;;;;;;6.95;1.70;;;;;;;20.79;58.68;101910.53;5033513;28;20030;-62
2021/08/28 07:25:37;;;;;;;7.90;1.80;;;;;;;20.78;58.36;101906.19;5033194;28;20063;-62
2021/08/28 07:28:06;;;;;;;4.03;1.60;;;;;;;20.76;58.45;101907.25;5032757;28;20026;-61
2021/08/28 07:30:34;;;;;;;4.72;1.98;;;;;;;20.74;58.50;101909.19;5033725;28;20045;-62
2021/08/28 07:33:00;;;;;;;5.32;1.70;;;;;;;20.72;58.62;101908.47;5033299;28;20072;-62
2021/08/28 07:35:26;;;;;;;6.47;2.20;;;;;;;20.70;58.92;101905.94;5032612;28;20119;-63
2021/08/28 07:37:52;;;;;;;5.47;1.83;;;;;;;20.67;59.09;101902.69;5033254;28;20029;-64
2021/08/28 07:40:17;;;;;;;5.57;1.73;;;;;;;20.71;59.11;101910.28;5035784;28;20039;-68
2021/08/28 07:42:43;;;;;;;6.22;1.90;;;;;;;20.76;59.14;101912.56;5034946;28;20021;-68
2021/08/28 07:45:09;;;;;;;5.35;1.83;;;;;;;20.77;59.41;101914.25;5033820;28;20395;-63
2021/08/28 07:47:34;;;;;;;5.13;1.63;;;;;;;20.78;59.21;101915.94;5034528;28;20382;-63
2021/08/28 07:50:02;;;;;;;5.33;1.77;;;;;;;20.76;59.02;101912.56;5033036;28;20022;-60
2021/08/28 07:52:27;;;;;;;4.65;1.70;;;;;;;20.77;59.27;101919.53;5033340;28;20345;-62
2021/08/28 07:54:52;;;;;;;6.15;1.90;;;;;;;20.76;59.08;101924.00;5033362;28;20025;-62
2021/08/28 07:57:18;;;;;;;5.78;1.90;;;;;;;20.76;59.15;101920.50;5032909;28;20052;-62
2021/08/28 07:59:43;;;;;;;5.23;1.80;;;;;;;20.74;58.99;101917.97;5033586;28;20469;-62
2021/08/28 08:02:08;;;;;;;4.90;1.67;;;;;;;20.75;59.04;101930.25;5033252;28;20298;-61
2021/08/28 08:04:34;;;;;;;7.88;1.95;;;;;;;20.76;59.19;101923.16;5032915;28;20287;-63
2021/08/28 08:06:59;;;;;;;7.15;1.80;;;;;;;20.77;58.90;101930.97;5033623;28;20029;-65
2021/08/28 08:09:25;;;;;;;4.50;1.80;;;;;;;20.78;59.08;101926.53;5032383;28;20072;-62
2021/08/28 08:11:50;;;;;;;4.00;1.90;;;;;;;20.77;59.00;101927.50;5032788;28;20030;-62
2021/08/28 08:14:18;;;;;;;3.83;1.60;;;;;;;20.77;58.83;101924.84;5033106;28;20777;-62
2021/08/28 08:16:43;;;;;;;4.03;1.67;;;;;;;20.79;58.94;101926.44;5031951;28;20274;-62
2021/08/28 08:19:09;;;;;;;6.20;2.00;;;;;;;20.77;58.83;101928.31;5033015;28;20382;-62
2021/08/28 08:21:34;;;;;;;4.35;1.90;;;;;;;20.78;58.92;101931.84;5033013;28;20073;-62
2021/08/28 08:24:02;;;;;;;5.13;1.92;;;;;;;20.77;58.89;101924.84;5031638;28;20029;-62
2021/08/28 08:26:28;;;;;;;5.30;1.80;;;;;;;20.78;58.81;101930.03;5033009;28;20022;-62
2021/08/28 08:28:54;;;;;;;6.63;2.20;;;;;;;20.79;58.87;101936.16;5032629;28;20196;-60
2021/08/28 08:31:22;;;;;;;4.47;1.70;;;;;;;20.79;58.72;101930.88;5032525;28;20147;-66
2021/08/28 08:33:48;;;;;;;5.80;1.80;;;;;;;20.79;58.89;101928.22;5032541;28;20033;-63
2021/08/28 08:36:13;;;;;;;4.35;1.58;;;;;;;20.78;58.72;101923.91;5032669;28;20327;-63
2021/08/28 08:38:38;;;;;;;5.07;1.70;;;;;;;20.82;58.75;101934.16;5031874;28;20033;-64
2021/08/28 08:41:07;;;;;;;5.55;2.47;;;;;;;20.80;58.67;101932.56;5032493;28;20028;-64
2021/08/28 08:43:33;;;;;;;3.95;1.90;;;;;;;20.83;58.74;101940.28;5032900;28;20045;-63
2021/08/28 08:45:59;;;;;;;4.93;1.80;;;;;;;20.85;58.81;101933.06;5031811;28;20376;-62
2021/08/28 08:48:24;;;;;;;4.78;1.90;;;;;;;20.86;58.80;101942.69;5032759;28;20104;-66
2021/08/28 08:50:50;;;;;;;4.47;1.85;;;;;;;20.87;58.86;101939.09;5032463;28;20071;-64
2021/08/28 08:53:17;;;;;;;5.60;1.90;;;;;;;20.89;58.88;101941.63;5031501;28;20041;-62
2021/08/28 08:55:43;;;;;;;4.97;1.60;;;;;;;20.91;58.93;101937.06;5032765;28;20056;-63
2021/08/28 08:58:09;;;;;;;4.38;1.80;;;;;;;20.92;58.64;101942.25;5034635;28;20358;-65
2021/08/28 09:00:35;;;;;;;4.28;1.55;;;;;;;20.94;59.01;101934.19;5032393;28;20029;-63
2021/08/28 09:03:00;;;;;;;4.43;1.60;;;;;;;20.94;58.80;101942.13;5032788;28;20129;-65
2021/08/28 09:05:26;;;;;;;4.80;1.77;;;;;;;20.97;58.89;101941.88;5032235;28;20123;-64
2021/08/28 09:07:56;;;;;;;4.13;1.60;;;;;;;21.00;58.78;101931.91;5031575;28;20046;-64
2021/08/28 09:10:22;;;;;;;4.20;1.70;;;;;;;21.01;58.81;101930.06;5033292;28;20021;-62
2021/08/28 09:12:47;;;;;;;5.22;2.05;;;;;;;21.04;58.85;101937.78;5031583;28;20088;-63
2021/08/28 09:15:12;;;;;;;5.75;1.83;;;;;;;21.05;58.72;101936.00;5032389;28;20021;-64
2021/08/28 09:17:41;;;;;;;3.95;1.98;;;;;;;21.05;58.98;101936.00;5032387;28;20033;-64
2021/08/28 09:20:23;;;;;;;4.50;1.75;;;;;;;21.06;59.10;101935.88;5031519;28;20040;-62
2021/08/28 09:22:50;;;;;;;3.80;1.60;;;;;;;21.07;59.00;101942.88;5032175;28;20048;-65
2021/08/28 09:25:24;;;;;;;6.05;1.80;;;;;;;21.08;58.95;101941.03;5032383;28;20034;-65
2021/08/28 09:27:50;;;;;;;;;;;;;;;21.08;58.86;101946.34;5031649;28;20036;-64
2021/08/28 09:30:21;;;;;;;3.88;1.63;;;;;;;21.06;59.03;101935.88;5032265;28;19936;-62
2021/08/28 09:33:00;;;;;;;7.78;2.25;;;;;;;21.06;58.70;101937.69;5031770;28;20030;-65
2021/08/28 09:35:31;;;;;;;5.22;1.63;;;;;;;21.05;58.99;101936.00;5031737;28;20045;-65
2021/08/28 09:38:03;;;;;;;4.65;1.67;;;;;;;21.05;58.84;101947.44;5032106;28;20032;-65
2021/08/28 09:40:56;;;;;;;4.13;1.77;;;;;;;21.06;58.70;101943.84;5032136;28;20081;-64
2021/08/28 09:43:27;;;;;;;4.85;1.73;;;;;;;21.07;58.57;101942.03;5024153;28;20041;-63
2021/08/28 09:45:53;;;;;;;3.92;1.80;;;;;;;21.05;58.83;101942.16;5031703;28;20493;-64
2021/08/28 09:48:27;;;;;;;4.68;2.00;;;;;;;21.07;58.76;101940.22;5034553;28;20024;-63
2021/08/28 09:50:54;;;;;;;4.13;2.00;;;;;;;21.07;58.67;101945.50;5035837;28;20117;-62
2021/08/28 09:53:29;;;;;;;3.83;1.83;;;;;;;21.10;58.82;101947.09;5035703;28;20128;-63
2021/08/28 09:55:57;;;;;;;4.03;1.70;;;;;;;21.09;58.67;101946.22;5035207;28;20021;-64
2021/08/28 09:58:28;;;;;;;4.93;1.63;;;;;;;21.09;58.38;101948.88;5035762;28;20056;-63
2021/08/28 10:00:58;;;;;;;4.30;1.52;;;;;;;21.11;58.53;101948.75;5036203;28;20036;-64
2021/08/28 10:03:28;;;;;;;4.20;1.70;;;;;;;21.12;58.57;101947.81;5035138;28;20025;-61
2021/08/28 10:05:57;;;;;;;5.18;1.73;;;;;;;21.11;58.45;101944.31;5035444;28;20021;-64
2021/08/28 10:08:22;;;;;;;5.22;1.80;;;;;;;21.12;58.52;101939.84;5035583;28;20038;-64
2021/08/28 10:10:50;;;;;;;4.32;1.92;;;;;;;21.14;58.27;101949.41;5034603;28;20025;-64
2021/08/28 10:13:20;;;;;;;3.78;1.50;;;;;;;21.13;58.43;101953.00;5035595;28;20113;-64
2021/08/28 10:15:46;;;;;;;4.10;1.73;;;;;;;21.14;58.10;101946.75;5035131;28;20394;-63
2021/08/28 10:18:12;;;;;;;6.32;2.00;;;;;;;21.12;58.07;101948.66;5035293;28;20104;-62
2021/08/28 10:20:39;;;;;;;4.68;2.10;;;;;;;21.15;58.15;101951.06;5035304;28;20508;-66
2021/08/28 10:23:09;;;;;;;5.97;2.42;;;;;;;21.13;58.11;101949.50;5034511;28;20075;-62
2021/08/28 10:25:43;;;;;;;4.95;1.95;;;;;;;21.17;58.00;101948.28;5035488;28;20053;-66
2021/08/28 10:28:11;;;;;;;5.13;2.13;;;;;;;21.17;58.03;101943.00;5035436;28;20037;-64
2021/08/28 10:30:36;;;;;;;4.22;2.03;;;;;;;21.19;57.83;101944.56;5034794;28;20025;-62
2021/08/28 10:33:02;;;;;;;4.80;2.03;;;;;;;21.19;58.20;101944.56;5035025;28;20470;-65
2021/08/28 10:35:27;;;;;;;4.43;2.25;;;;;;;21.22;57.89;101950.59;5035074;28;20025;-63
2021/08/28 10:37:55;;;;;;;4.57;2.10;;;;;;;21.19;58.07;101941.09;5034196;28;20099;-63
2021/08/28 10:40:24;;;;;;;5.45;2.00;;;;;;;21.23;58.00;101952.28;5035033;28;20079;-61
2021/08/28 10:42:52;;;;;;;4.50;1.90;;;;;;;21.22;58.22;101948.81;5034553;28;20432;-62
2021/08/28 10:45:25;;;;;;;5.78;2.10;;;;;;;21.23;58.02;101954.94;5034082;28;20037;-65
2021/08/28 10:47:56;;;;;;;5.82;2.17;;;;;;;21.25;58.20;101947.72;5034471;28;20034;-65
2021/08/28 10:50:21;;;;;;;4.30;1.85;;;;;;;21.27;57.99;101951.94;5034545;28;20496;-64
2021/08/28 10:52:49;;;;;;;4.93;2.30;;;;;;;21.27;58.20;101954.59;5033737;28;20053;-64
2021/08/28 10:55:17;;;;;;;5.10;2.03;;;;;;;21.28;58.30;101947.47;5034896;28;20041;-64
2021/08/28 10:57:43;;;;;;;6.45;2.10;;;;;;;21.29;58.31;101944.69;5034596;28;20026;-63
2021/08/28 11:00:14;;;;;;;7.88;2.53;;;;;;;21.31;58.16;101942.78;5032747;28;20136;-60
2021/08/28 11:02:51;;;;;;;5.55;2.20;;;;;;;21.33;58.22;101943.50;5034731;28;20045;-64
2021/08/28 11:05:32;;;;;;;5.93;2.30;;;;;;;21.32;58.36;101944.47;5033710;28;20113;-61
2021/08/28 11:08:14;;;;;;;4.82;2.10;;;;;;;21.34;58.43;101939.03;5034461;28;20036;-62
2021/08/28 11:10:40;;;;;;;4.60;2.03;;;;;;;21.34;58.32;101931.94;5035052;28;20032;-61
2021/08/28 11:13:15;;;;;;;7.60;2.33;;;;;;;21.32;58.08;101935.69;5033779;28;20116;-62
2021/08/28 11:15:43;;;;;;;5.88;2.60;;;;;;;21.27;58.10;101925.44;5034786;28;20389;-63
2021/08/28 11:18:33;;;;;;;4.15;2.00;;;;;;;21.36;58.10;101927.38;5034745;28;20156;-63
2021/08/28 11:21:06;;;;;;;4.32;1.83;;;;;;;21.37;58.13;101934.34;5033858;28;20064;-62
2021/08/28 11:23:38;;;;;;;4.72;2.10;;;;;;;21.33;58.27;101932.91;5034815;28;20509;-61
2021/08/28 11:26:06;;;;;;;5.75;2.30;;;;;;;21.37;58.09;101939.63;5034702;28;20385;-61
2021/08/28 11:28:41;;;;;;;5.90;2.10;;;;;;;21.35;58.46;101925.66;5033891;28;20029;-61
2021/08/28 11:31:07;;;;;;;4.57;2.28;;;;;;;21.38;58.19;101944.00;5034590;28;20526;-62